Time;durP1;ratioP1;P1;durP2;ratioP2;P2;SDS_P1;SDS_P2;PMS_P1;PMS_P2;Temp;Humidity;BMP_temperature;BMP_pressure;BME280_temperature;BME280_humidity;BME280_pressure;Samples;Min_cycle;Max_cycle;Signal;HPM_P1;HPM_P2
2023/05/02 00:00:11;;;;;;;20.50;12.05;;;11.90;99.90;;;;;;4937786;28;20042;-69
2023/05/02 00:02:38;;;;;;;16.17;10.98;;;11.90;99.90;;;;;;4950567;28;20034;-69
2023/05/02 00:05:05;;;;;;;19.50;13.18;;;11.90;99.90;;;;;;4959070;28;20754;-69
2023/05/02 00:07:32;;;;;;;19.83;13.05;;;11.90;99.90;;;;;;4961364;28;20034;-68
2023/05/02 00:10:01;;;;;;;22.25;14.00;;;12.00;99.90;;;;;;4935679;28;20057;-69
2023/05/02 00:12:27;;;;;;;16.90;11.95;;;11.90;99.90;;;;;;4946619;28;20042;-68
2023/05/02 00:14:54;;;;;;;20.77;11.77;;;11.90;99.90;;;;;;4966445;28;20042;-68
2023/05/02 00:17:20;;;;;;;15.50;9.85;;;11.90;99.90;;;;;;4940082;28;20372;-68
2023/05/02 00:19:47;;;;;;;16.02;11.20;;;11.90;99.90;;;;;;4956193;28;20640;-68
2023/05/02 00:22:13;;;;;;;14.50;10.60;;;11.90;99.90;;;;;;4952255;28;20517;-68
2023/05/02 00:24:39;;;;;;;16.65;10.30;;;11.90;99.90;;;;;;4957901;28;20473;-68
2023/05/02 00:27:06;;;;;;;15.98;10.57;;;11.90;99.90;;;;;;4943738;28;20109;-68
2023/05/02 00:29:32;;;;;;;16.38;9.18;;;11.90;99.90;;;;;;4952889;28;20038;-68
2023/05/02 00:31:58;;;;;;;12.82;8.90;;;11.80;99.90;;;;;;4934646;28;20041;-69
2023/05/02 00:34:31;;;;;;;14.68;9.30;;;11.80;99.90;;;;;;4948140;28;20041;-69
2023/05/02 00:36:58;;;;;;;14.57;8.70;;;11.80;99.90;;;;;;4957552;28;20034;-68
2023/05/02 00:39:24;;;;;;;17.35;9.00;;;11.80;99.90;;;;;;4955411;28;20573;-70
2023/05/02 00:41:58;;;;;;;13.27;8.85;;;11.80;99.90;;;;;;4950301;28;20034;-68
2023/05/02 00:44:24;;;;;;;11.52;8.00;;;11.80;99.90;;;;;;4959189;28;20042;-68
2023/05/02 00:46:52;;;;;;;13.80;9.68;;;11.80;99.90;;;;;;4946435;28;21197;-69
2023/05/02 00:49:18;;;;;;;18.42;11.43;;;11.90;99.90;;;;;;4955702;28;20034;-69
2023/05/02 00:51:45;;;;;;;11.93;8.27;;;11.80;99.90;;;;;;4934829;28;20597;-68
2023/05/02 00:54:12;;;;;;;12.40;8.25;;;11.80;99.90;;;;;;4966869;28;20030;-69
2023/05/02 00:56:39;;;;;;;14.55;9.35;;;11.80;99.90;;;;;;4956701;28;20054;-69
2023/05/02 00:59:07;;;;;;;12.82;8.05;;;11.80;99.90;;;;;;4954268;28;20066;-68
2023/05/02 01:01:46;;;;;;;14.25;9.90;;;11.80;99.90;;;;;;4932868;28;20047;-68
2023/05/02 01:04:44;;;;;;;11.48;7.22;;;11.90;99.90;;;;;;4960489;28;20046;-70
2023/05/02 01:07:23;;;;;;;11.90;7.57;;;11.90;99.90;;;;;;4961018;28;20042;-68
2023/05/02 01:10:02;;;;;;;10.45;7.35;;;11.90;99.90;;;;;;4956354;28;20085;-69
2023/05/02 01:12:46;;;;;;;11.68;8.18;;;11.90;99.90;;;;;;4949197;28;20050;-69
2023/05/02 01:15:20;;;;;;;10.85;7.13;;;11.90;99.90;;;;;;4952725;28;20372;-69
2023/05/02 01:17:48;;;;;;;13.18;7.78;;;11.90;99.90;;;;;;4967524;28;20046;-69
2023/05/02 01:20:19;;;;;;;10.07;7.10;;;11.90;99.90;;;;;;4968599;28;20073;-68
2023/05/02 01:22:47;;;;;;;10.70;7.57;;;12.00;99.90;;;;;;4930804;28;20397;-68
2023/05/02 01:25:14;;;;;;;13.60;8.80;;;12.00;99.90;;;;;;4953059;28;20361;-68
2023/05/02 01:28:04;;;;;;;12.18;8.18;;;12.00;99.90;;;;;;4941192;28;20077;-69
2023/05/02 01:30:32;;;;;;;18.15;11.23;;;12.00;99.90;;;;;;4961340;28;20034;-70
2023/05/02 01:33:02;;;;;;;18.55;11.05;;;11.90;99.90;;;;;;4928566;28;20051;-68
2023/05/02 01:35:29;;;;;;;9.65;7.38;;;11.90;99.90;;;;;;4960860;28;20378;-69
2023/05/02 01:37:57;;;;;;;15.30;10.65;;;11.90;99.90;;;;;;4955126;28;20042;-69
2023/05/02 01:40:25;;;;;;;16.42;10.95;;;11.90;99.90;;;;;;4969840;28;20302;-68
2023/05/02 01:42:53;;;;;;;14.40;9.85;;;11.90;99.90;;;;;;4934340;28;20044;-68
2023/05/02 01:45:21;;;;;;;14.27;8.80;;;11.90;99.90;;;;;;4939591;28;20064;-68
2023/05/02 01:47:48;;;;;;;18.08;10.63;;;11.90;99.90;;;;;;4956938;28;20045;-69
2023/05/02 01:50:20;;;;;;;17.40;11.68;;;11.80;99.90;;;;;;4956998;28;20603;-69
2023/05/02 01:52:49;;;;;;;16.30;10.77;;;11.90;99.90;;;;;;4970457;28;20398;-68
2023/05/02 01:55:17;;;;;;;20.50;12.00;;;11.80;99.90;;;;;;4961616;28;20042;-68
2023/05/02 01:57:45;;;;;;;15.63;9.43;;;11.80;99.90;;;;;;4964537;28;20437;-69
2023/05/02 02:00:16;;;;;;;16.77;9.43;;;11.80;99.90;;;;;;4971074;28;20042;-68
2023/05/02 02:02:45;;;;;;;19.42;11.38;;;11.90;99.90;;;;;;4935306;28;20041;-69
2023/05/02 02:05:14;;;;;;;15.63;8.68;;;11.90;99.90;;;;;;4956608;28;20440;-68
2023/05/02 02:07:42;;;;;;;11.82;6.55;;;11.80;99.90;;;;;;4955219;28;20050;-69
2023/05/02 02:10:09;;;;;;;15.93;10.18;;;11.90;99.90;;;;;;4954756;28;20050;-68
2023/05/02 02:12:44;;;;;;;12.73;7.57;;;11.80;99.90;;;;;;4932819;28;20768;-68
2023/05/02 02:15:16;;;;;;;10.80;6.22;;;11.80;99.90;;;;;;4974194;28;20038;-69
2023/05/02 02:17:47;;;;;;;11.45;6.93;;;11.80;99.90;;;;;;4964732;28;20057;-69
2023/05/02 02:20:15;;;;;;;11.15;5.88;;;11.80;99.90;;;;;;4959412;28;20524;-69
2023/05/02 02:22:44;;;;;;;8.00;3.95;;;11.80;99.90;;;;;;4935430;28;20591;-68
2023/05/02 02:25:15;;;;;;;11.38;4.13;;;11.80;99.90;;;;;;4937773;28;20053;-68
2023/05/02 02:27:42;;;;;;;9.38;3.05;;;11.80;99.90;;;;;;4955276;28;20046;-69
2023/05/02 02:30:09;;;;;;;14.70;3.03;;;11.70;99.90;;;;;;4953026;28;20034;-68
2023/05/02 02:32:37;;;;;;;11.63;2.78;;;11.70;99.90;;;;;;4947966;28;20039;-68
2023/05/02 02:35:04;;;;;;;8.20;2.20;;;11.60;99.90;;;;;;4956773;28;20042;-68
2023/05/02 02:37:34;;;;;;;12.27;2.25;;;11.50;99.90;;;;;;4961124;28;20045;-69
2023/05/02 02:40:25;;;;;;;7.45;1.85;;;11.50;99.90;;;;;;4959155;28;20508;-68
2023/05/02 02:43:38;;;;;;;6.07;1.30;;;11.50;99.90;;;;;;4958689;28;20065;-68
2023/05/02 02:46:30;;;;;;;7.47;1.25;;;11.40;99.90;;;;;;4954884;28;20401;-68
2023/05/02 02:49:13;;;;;;;6.53;1.23;;;11.30;99.90;;;;;;4941193;28;20052;-69
2023/05/02 02:52:05;;;;;;;;;;;11.30;99.90;;;;;;4951300;28;20026;-68
2023/05/02 02:54:39;;;;;;;4.78;0.80;;;11.20;99.90;;;;;;4950355;28;20293;-68
2023/05/02 02:57:17;;;;;;;7.28;0.95;;;11.20;99.90;;;;;;4957941;28;20046;-69
2023/05/02 03:00:33;;;;;;;6.20;1.27;;;11.20;99.90;;;;;;4956732;28;20037;-68
2023/05/02 03:02:59;;;;;;;7.57;1.20;;;11.20;99.90;;;;;;4948040;28;20453;-68
2023/05/02 03:05:26;;;;;;;6.35;1.02;;;11.10;99.90;;;;;;4944197;28;20943;-68
2023/05/02 03:07:52;;;;;;;6.93;1.08;;;11.10;99.90;;;;;;4956363;28;20038;-68
2023/05/02 03:10:22;;;;;;;6.47;1.13;;;11.10;99.90;;;;;;4934002;28;20054;-68
2023/05/02 03:12:48;;;;;;;7.30;0.90;;;11.10;99.90;;;;;;4950830;28;20402;-68
2023/05/02 03:15:45;;;;;;;5.93;1.30;;;11.10;99.90;;;;;;4970429;28;20423;-68
2023/05/02 03:18:12;;;;;;;10.30;1.48;;;11.10;99.90;;;;;;4958715;28;20042;-68
2023/05/02 03:20:39;;;;;;;5.25;0.90;;;11.10;99.90;;;;;;4937465;28;20042;-68
2023/05/02 03:23:05;;;;;;;6.28;1.20;;;11.10;99.90;;;;;;4973934;28;20034;-68
2023/05/02 03:25:32;;;;;;;8.38;1.00;;;11.10;99.90;;;;;;4948495;28;20041;-69
2023/05/02 03:27:58;;;;;;;4.72;0.90;;;11.00;99.90;;;;;;4943689;28;20050;-68
2023/05/02 03:30:25;;;;;;;5.97;0.82;;;11.00;99.90;;;;;;4950602;28;20066;-68
2023/05/02 03:32:51;;;;;;;5.25;0.77;;;10.90;99.90;;;;;;4947622;28;20034;-68
2023/05/02 03:35:18;;;;;;;4.78;1.05;;;10.80;99.90;;;;;;4957158;28;20057;-68
2023/05/02 03:37:46;;;;;;;5.70;0.88;;;10.80;99.90;;;;;;4972562;28;20050;-67
2023/05/02 03:40:13;;;;;;;3.08;0.50;;;10.70;99.90;;;;;;4934777;28;20034;-69
2023/05/02 03:42:41;;;;;;;10.48;0.95;;;10.60;99.90;;;;;;4934705;28;20038;-68
2023/05/02 03:45:18;;;;;;;7.88;1.15;;;10.60;99.90;;;;;;4978769;28;20042;-68
2023/05/02 03:47:46;;;;;;;7.07;0.68;;;10.60;99.90;;;;;;4962401;28;20045;-69
2023/05/02 03:50:13;;;;;;;9.02;0.80;;;10.60;99.90;;;;;;4956766;28;20426;-69
2023/05/02 03:52:39;;;;;;;6.95;0.80;;;10.60;99.90;;;;;;4945845;28;20042;-68
2023/05/02 03:55:06;;;;;;;6.07;1.27;;;10.60;99.90;;;;;;4968220;28;20046;-68
2023/05/02 03:57:33;;;;;;;7.43;0.80;;;10.70;99.90;;;;;;4940042;28;20679;-67
2023/05/02 03:59:59;;;;;;;9.10;0.93;;;10.70;99.90;;;;;;4949191;28;20034;-68
2023/05/02 04:02:29;;;;;;;5.22;0.73;;;10.80;99.90;;;;;;4933728;28;21138;-68
2023/05/02 04:04:56;;;;;;;6.55;1.05;;;10.80;99.90;;;;;;4953807;28;20498;-68
2023/05/02 04:07:24;;;;;;;5.38;1.05;;;10.80;99.90;;;;;;4943007;28;20054;-68
2023/05/02 04:10:00;;;;;;;7.97;1.13;;;10.80;99.90;;;;;;4957969;28;21089;-69
2023/05/02 04:12:28;;;;;;;4.80;0.70;;;10.80;99.90;;;;;;4940766;28;20049;-68
2023/05/02 04:14:55;;;;;;;7.25;1.00;;;10.80;99.90;;;;;;4960581;28;20046;-69
2023/05/02 04:17:26;;;;;;;7.07;0.80;;;10.70;99.90;;;;;;4954335;28;20045;-68
2023/05/02 04:19:52;;;;;;;7.57;1.13;;;10.60;99.90;;;;;;4951112;28;20427;-69
2023/05/02 04:22:22;;;;;;;6.35;0.93;;;10.50;99.90;;;;;;4946032;28;20228;-68
2023/05/02 04:24:53;;;;;;;4.93;0.60;;;10.40;99.90;;;;;;4949188;28;20069;-68
2023/05/02 04:27:20;;;;;;;5.93;0.85;;;10.50;99.90;;;;;;4938841;28;20053;-69
2023/05/02 04:29:50;;;;;;;4.88;0.70;;;10.50;99.90;;;;;;4953458;28;20405;-68
2023/05/02 04:32:18;;;;;;;5.32;0.70;;;10.50;99.90;;;;;;4937519;28;20055;-68
2023/05/02 04:34:45;;;;;;;9.93;1.15;;;10.60;99.90;;;;;;4958823;28;20038;-69
2023/05/02 04:37:13;;;;;;;8.73;1.17;;;10.60;99.90;;;;;;4927379;28;20042;-68
2023/05/02 04:39:40;;;;;;;5.28;1.00;;;10.60;99.90;;;;;;4948799;28;20386;-68
2023/05/02 04:42:13;;;;;;;4.43;0.90;;;10.60;99.90;;;;;;4947047;28;22546;-68
2023/05/02 04:44:48;;;;;;;4.53;0.70;;;10.60;99.90;;;;;;4951069;28;20042;-69
2023/05/02 04:47:15;;;;;;;6.72;0.77;;;10.60;99.90;;;;;;4938453;28;20137;-68
2023/05/02 04:49:42;;;;;;;10.32;0.73;;;10.70;99.90;;;;;;4920140;28;20381;-68
2023/05/02 04:52:09;;;;;;;4.78;0.57;;;10.60;99.90;;;;;;4950462;28;20629;-68
2023/05/02 04:54:36;;;;;;;3.70;0.73;;;10.70;99.90;;;;;;4956148;28;20034;-69
2023/05/02 04:57:05;;;;;;;6.53;0.63;;;10.70;99.90;;;;;;4959863;28;20065;-69
2023/05/02 04:59:34;;;;;;;7.20;0.60;;;10.70;99.90;;;;;;4939431;28;20517;-68
2023/05/02 05:02:02;;;;;;;6.47;0.75;;;10.70;99.90;;;;;;4954483;28;20034;-69
2023/05/02 05:04:28;;;;;;;5.47;0.73;;;10.70;99.90;;;;;;4952254;28;20046;-68
2023/05/02 05:06:54;;;;;;;4.45;0.50;;;10.70;99.90;;;;;;4954481;28;20029;-67
2023/05/02 05:09:21;;;;;;;4.85;0.93;;;10.70;99.90;;;;;;4957297;28;20038;-69
2023/05/02 05:11:48;;;;;;;3.53;0.45;;;10.70;99.90;;;;;;4948625;28;20372;-69
2023/05/02 05:14:15;;;;;;;7.18;0.82;;;10.70;99.90;;;;;;4972891;28;20041;-68
2023/05/02 05:16:46;;;;;;;6.88;0.98;;;10.80;99.90;;;;;;4960740;28;20038;-68
2023/05/02 05:19:12;;;;;;;8.73;0.90;;;10.70;99.90;;;;;;4963351;28;20038;-69
2023/05/02 05:21:38;;;;;;;6.35;0.93;;;10.70;99.90;;;;;;4953890;28;20030;-70
2023/05/02 05:24:05;;;;;;;9.43;0.90;;;10.70;99.90;;;;;;4968691;28;20035;-68
2023/05/02 05:26:31;;;;;;;11.40;2.30;;;10.70;99.90;;;;;;4954223;28;20404;-69
2023/05/02 05:28:58;;;;;;;9.48;2.20;;;10.70;99.90;;;;;;4955300;28;20046;-68
2023/05/02 05:31:29;;;;;;;9.02;2.05;;;10.70;99.90;;;;;;4920421;28;20436;-71
2023/05/02 05:33:58;;;;;;;6.60;1.13;;;10.70;99.90;;;;;;4967028;28;20529;-68
2023/05/02 05:36:27;;;;;;;8.45;0.85;;;10.70;99.90;;;;;;4955866;28;20041;-69
2023/05/02 05:38:53;;;;;;;5.07;0.90;;;10.70;99.90;;;;;;4961188;28;20045;-67
2023/05/02 05:41:21;;;;;;;9.15;1.55;;;10.80;99.90;;;;;;4957518;28;20037;-68
2023/05/02 05:43:53;;;;;;;11.65;1.40;;;10.80;99.90;;;;;;4959273;28;20678;-68
2023/05/02 05:46:20;;;;;;;12.30;1.48;;;10.80;99.90;;;;;;4952459;28;20065;-69
2023/05/02 05:48:46;;;;;;;8.02;1.55;;;10.90;99.90;;;;;;4972147;28;20482;-68
2023/05/02 05:51:13;;;;;;;5.47;1.00;;;10.90;99.90;;;;;;4950220;28;20049;-68
2023/05/02 05:53:39;;;;;;;13.55;3.53;;;10.90;99.90;;;;;;4951592;28;20030;-68
2023/05/02 05:56:12;;;;;;;8.88;1.38;;;10.90;99.90;;;;;;4953671;28;20042;-68
2023/05/02 05:58:44;;;;;;;8.52;1.40;;;10.80;99.90;;;;;;4952713;28;20551;-68
2023/05/02 06:01:12;;;;;;;7.60;1.00;;;10.80;99.90;;;;;;4943180;28;20038;-68
2023/05/02 06:03:39;;;;;;;10.82;2.05;;;10.70;99.90;;;;;;4957510;28;20043;-69
2023/05/02 06:06:06;;;;;;;13.90;2.75;;;10.80;99.90;;;;;;4960210;28;20038;-68
2023/05/02 06:08:33;;;;;;;13.18;3.00;;;10.70;99.90;;;;;;4968742;28;20077;-69
2023/05/02 06:10:59;;;;;;;15.45;2.03;;;10.70;99.90;;;;;;4918940;28;20058;-68
2023/05/02 06:13:25;;;;;;;11.77;1.70;;;10.80;99.90;;;;;;4944228;28;20057;-69
2023/05/02 06:15:51;;;;;;;10.45;1.98;;;10.70;99.90;;;;;;4952546;28;20034;-68
2023/05/02 06:18:18;;;;;;;9.93;1.40;;;10.70;99.90;;;;;;4955878;28;20417;-67
2023/05/02 06:20:44;;;;;;;7.78;0.90;;;10.80;99.90;;;;;;4948542;28;20375;-68
2023/05/02 06:23:10;;;;;;;8.77;1.27;;;10.80;99.90;;;;;;4973701;28;20038;-69
2023/05/02 06:25:37;;;;;;;18.33;2.85;;;10.80;99.90;;;;;;4943776;28;20045;-68
2023/05/02 06:28:03;;;;;;;8.00;1.63;;;10.90;99.90;;;;;;4961540;28;20045;-68
2023/05/02 06:30:29;;;;;;;9.15;1.63;;;11.00;99.90;;;;;;4950472;28;20401;-69
2023/05/02 06:32:56;;;;;;;13.27;2.25;;;11.00;99.90;;;;;;4951307;28;20034;-68
2023/05/02 06:35:22;;;;;;;11.15;2.10;;;11.10;99.90;;;;;;4953771;28;20043;-68
2023/05/02 06:37:48;;;;;;;13.82;1.75;;;11.10;99.90;;;;;;4939372;28;20034;-69
2023/05/02 06:40:15;;;;;;;10.15;1.67;;;11.20;99.90;;;;;;4950979;28;20042;-68
2023/05/02 06:42:41;;;;;;;10.55;1.60;;;11.30;99.90;;;;;;4950542;28;20030;-67
2023/05/02 06:45:07;;;;;;;10.60;1.52;;;11.30;99.90;;;;;;4961463;28;20126;-68
2023/05/02 06:47:34;;;;;;;10.50;1.50;;;11.30;99.90;;;;;;4960769;28;20047;-68
2023/05/02 06:50:00;;;;;;;6.47;1.30;;;11.40;99.90;;;;;;4957534;28;20042;-68
2023/05/02 06:52:26;;;;;;;8.15;1.40;;;11.50;99.90;;;;;;4948468;28;20622;-68
2023/05/02 06:54:53;;;;;;;9.77;2.03;;;11.60;99.90;;;;;;4949305;28;20234;-68
2023/05/02 06:57:19;;;;;;;12.45;2.03;;;11.50;99.90;;;;;;4955135;28;20489;-68
2023/05/02 06:59:45;;;;;;;16.83;2.53;;;11.60;99.90;;;;;;4951643;28;20042;-68
2023/05/02 07:02:11;;;;;;;5.38;0.90;;;11.60;99.90;;;;;;4948597;28;20035;-68
2023/05/02 07:04:38;;;;;;;7.53;0.90;;;11.70;99.90;;;;;;4951355;28;20046;-68
2023/05/02 07:07:05;;;;;;;5.82;1.02;;;11.70;99.90;;;;;;4959920;28;20134;-68
2023/05/02 07:09:31;;;;;;;8.68;1.42;;;11.80;99.90;;;;;;4959524;28;20054;-68
2023/05/02 07:11:57;;;;;;;6.97;1.55;;;11.90;99.90;;;;;;4971169;28;20524;-68
2023/05/02 07:14:24;;;;;;;8.70;1.42;;;12.00;99.90;;;;;;4950472;28;20038;-69
2023/05/02 07:16:50;;;;;;;7.72;1.15;;;12.00;99.90;;;;;;4951410;28;20038;-69
2023/05/02 07:19:16;;;;;;;7.00;1.00;;;11.90;99.90;;;;;;4969043;28;20042;-68
2023/05/02 07:21:42;;;;;;;10.85;3.13;;;12.00;99.90;;;;;;4963707;28;20049;-69
2023/05/02 07:24:09;;;;;;;7.78;2.45;;;12.00;99.90;;;;;;4946766;28;20034;-69
2023/05/02 07:26:35;;;;;;;8.68;3.13;;;12.00;99.90;;;;;;4952472;28;20038;-68
2023/05/02 07:29:02;;;;;;;8.10;2.70;;;12.00;99.90;;;;;;4953940;28;20485;-69
2023/05/02 07:31:28;;;;;;;10.25;1.30;;;12.00;99.90;;;;;;4953751;28;20477;-67
2023/05/02 07:33:54;;;;;;;6.82;1.10;;;12.20;99.90;;;;;;4954840;28;20382;-69
2023/05/02 07:36:21;;;;;;;7.32;1.23;;;12.30;99.90;;;;;;4953530;28;20054;-68
2023/05/02 07:38:47;;;;;;;6.10;1.08;;;12.30;99.90;;;;;;4949295;28;20042;-69
2023/05/02 07:41:13;;;;;;;6.68;1.48;;;12.30;99.90;;;;;;4929254;28;20049;-68
2023/05/02 07:43:39;;;;;;;6.78;1.02;;;12.30;99.90;;;;;;4943263;28;20453;-67
2023/05/02 07:46:06;;;;;;;8.75;1.70;;;12.30;99.90;;;;;;4934708;28;20591;-68
2023/05/02 07:48:32;;;;;;;6.65;1.20;;;12.20;99.90;;;;;;4950907;28;20634;-68
2023/05/02 07:51:09;;;;;;;7.30;1.02;;;12.30;99.90;;;;;;4930818;28;20045;-69
2023/05/02 07:53:35;;;;;;;4.25;0.70;;;12.30;99.90;;;;;;4951359;28;20034;-70
2023/05/02 07:56:06;;;;;;;6.18;1.40;;;12.30;99.90;;;;;;4958867;28;20030;-69
2023/05/02 07:58:33;;;;;;;6.93;1.33;;;12.30;99.90;;;;;;4959189;28;20046;-70
2023/05/02 08:01:00;;;;;;;6.93;1.05;;;12.10;99.90;;;;;;4950837;28;20556;-68
2023/05/02 08:03:26;;;;;;;12.00;1.48;;;11.90;99.90;;;;;;4947914;28;20042;-69
2023/05/02 08:05:53;;;;;;;5.18;1.00;;;11.70;99.90;;;;;;4936954;28;20049;-68
2023/05/02 08:08:19;;;;;;;4.95;0.70;;;11.60;99.90;;;;;;4952207;28;20030;-68
2023/05/02 08:10:45;;;;;;;7.50;1.30;;;11.60;99.90;;;;;;4930248;28;20482;-68
2023/05/02 08:13:12;;;;;;;4.82;0.80;;;11.60;99.90;;;;;;4945849;28;20038;-68
2023/05/02 08:15:38;;;;;;;10.65;1.42;;;11.70;99.90;;;;;;4955057;28;20883;-69
2023/05/02 08:18:05;;;;;;;8.95;1.25;;;11.80;99.90;;;;;;4961070;28;20489;-69
2023/05/02 08:20:31;;;;;;;4.28;0.85;;;11.90;99.90;;;;;;4955976;28;20512;-68
2023/05/02 08:22:57;;;;;;;5.78;1.25;;;12.00;99.90;;;;;;4971475;28;20046;-68
2023/05/02 08:25:23;;;;;;;6.57;1.17;;;12.10;99.90;;;;;;4950605;28;20022;-67
2023/05/02 08:27:49;;;;;;;11.88;1.90;;;12.20;99.90;;;;;;4950919;28;20053;-68
2023/05/02 08:30:16;;;;;;;3.40;0.70;;;12.30;99.90;;;;;;4951205;28;20042;-69
2023/05/02 08:32:42;;;;;;;7.32;0.98;;;12.50;99.90;;;;;;4944533;28;20041;-67
2023/05/02 08:35:09;;;;;;;3.08;0.52;;;12.60;99.90;;;;;;4954291;28;20043;-67
2023/05/02 08:37:35;;;;;;;3.00;0.68;;;12.80;99.90;;;;;;4940838;28;22024;-68
2023/05/02 08:40:02;;;;;;;6.15;0.88;;;12.90;99.90;;;;;;4956095;28;20045;-69
2023/05/02 08:42:33;;;;;;;5.28;0.85;;;13.00;99.90;;;;;;4960325;28;20034;-68
2023/05/02 08:45:00;;;;;;;4.00;0.50;;;13.20;99.90;;;;;;4961454;28;20303;-68
2023/05/02 08:47:28;;;;;;;1.65;0.40;;;13.30;99.90;;;;;;4959232;28;20513;-69
2023/05/02 08:49:56;;;;;;;3.83;0.80;;;13.50;99.90;;;;;;4953319;28;20077;-68
2023/05/02 08:52:23;;;;;;;4.22;0.57;;;13.50;99.90;;;;;;4948211;28;20034;-69
2023/05/02 08:54:50;;;;;;;3.10;0.60;;;13.50;99.90;;;;;;4956047;28;20038;-69
2023/05/02 08:57:17;;;;;;;5.00;0.50;;;13.50;99.90;;;;;;4956308;28;20034;-69
2023/05/02 08:59:43;;;;;;;3.58;0.50;;;13.60;99.90;;;;;;4953568;28;20037;-68
2023/05/02 09:02:28;;;;;;;3.70;0.60;;;13.70;99.90;;;;;;4969037;28;20584;-68
2023/05/02 09:04:58;;;;;;;3.50;0.50;;;13.60;99.60;;;;;;4962532;28;20035;-67
2023/05/02 09:07:24;;;;;;;3.30;0.32;;;13.60;99.70;;;;;;4977642;28;20470;-68
2023/05/02 09:09:51;;;;;;;3.80;0.57;;;13.70;99.50;;;;;;4938489;28;20058;-68
2023/05/02 09:12:25;;;;;;;3.88;0.73;;;13.80;99.20;;;;;;4950312;28;20038;-68
2023/05/02 09:15:13;;;;;;;5.47;0.88;;;13.90;99.10;;;;;;4953591;28;20044;-68
2023/05/02 09:17:49;;;;;;;3.75;0.70;;;14.00;98.00;;;;;;4955259;28;20030;-68
2023/05/02 09:20:16;;;;;;;3.13;0.60;;;14.10;97.60;;;;;;4935010;28;20034;-68
2023/05/02 09:22:51;;;;;;;3.70;0.70;;;14.20;97.30;;;;;;4949002;28;20561;-68
2023/05/02 09:25:19;;;;;;;4.20;0.50;;;14.40;97.10;;;;;;4954496;28;20030;-69
2023/05/02 09:27:55;;;;;;;1.55;0.50;;;14.40;96.50;;;;;;4962115;28;20050;-70
2023/05/02 09:30:25;;;;;;;3.17;0.60;;;14.30;96.00;;;;;;4957577;28;20038;-70
2023/05/02 09:32:55;;;;;;;3.45;0.55;;;14.30;95.50;;;;;;4955428;28;21581;-69
2023/05/02 09:35:24;;;;;;;7.80;2.30;;;14.40;94.70;;;;;;4954566;28;20030;-69
2023/05/02 09:37:56;;;;;;;14.00;5.65;;;14.40;94.80;;;;;;4955154;28;20038;-69
2023/05/02 09:40:23;;;;;;;4.10;1.70;;;14.40;93.70;;;;;;4951602;28;20038;-68
2023/05/02 09:42:50;;;;;;;9.35;1.00;;;14.30;93.70;;;;;;4947988;28;20030;-69
2023/05/02 09:45:21;;;;;;;5.07;1.08;;;14.30;93.10;;;;;;4955435;28;20049;-69
2023/05/02 09:47:48;;;;;;;2.30;0.50;;;14.40;92.20;;;;;;4972865;28;20034;-69
2023/05/02 09:50:36;;;;;;;2.05;0.50;;;14.70;91.80;;;;;;4956914;28;20933;-68
2023/05/02 09:53:08;;;;;;;4.13;0.63;;;15.20;92.00;;;;;;4972315;28;20042;-69
2023/05/02 09:55:34;;;;;;;2.58;0.70;;;15.60;91.00;;;;;;4960323;28;20037;-69
2023/05/02 09:58:01;;;;;;;5.20;0.50;;;15.60;89.80;;;;;;4955517;28;20681;-68
2023/05/02 10:00:44;;;;;;;4.28;0.65;;;15.60;90.10;;;;;;4949037;28;20042;-69
2023/05/02 10:03:10;;;;;;;;;;;15.50;90.10;;;;;;4932612;28;20513;-70
2023/05/02 10:05:38;;;;;;;3.83;0.65;;;15.40;89.80;;;;;;4935102;28;19951;-70
2023/05/02 10:08:09;;;;;;;2.88;0.68;;;15.20;90.10;;;;;;4954416;28;20041;-69
2023/05/02 10:10:37;;;;;;;3.75;0.80;;;15.20;89.80;;;;;;4950981;28;20061;-68
2023/05/02 10:13:06;;;;;;;2.85;0.55;;;15.40;88.80;;;;;;4950210;28;20497;-69
2023/05/02 10:15:41;;;;;;;3.97;0.60;;;15.70;88.10;;;;;;4959953;28;20045;-69
2023/05/02 10:18:16;;;;;;;2.85;0.70;;;15.90;87.60;;;;;;4961284;28;20039;-69
2023/05/02 10:20:51;;;;;;;2.15;0.50;;;16.20;86.00;;;;;;4954360;28;20043;-68
2023/05/02 10:23:18;;;;;;;3.30;0.40;;;16.50;85.40;;;;;;4947937;28;20049;-69
2023/05/02 10:25:45;;;;;;;3.42;0.70;;;16.80;85.10;;;;;;4954058;28;20038;-68
2023/05/02 10:28:13;;;;;;;7.20;0.80;;;16.80;82.00;;;;;;4955694;28;20054;-69
2023/05/02 10:30:40;;;;;;;4.80;0.47;;;16.80;82.10;;;;;;4950859;28;20041;-69
2023/05/02 10:33:06;;;;;;;3.47;0.63;;;16.80;82.00;;;;;;4950375;28;20114;-69
2023/05/02 10:35:34;;;;;;;2.55;0.50;;;16.90;81.20;;;;;;4957827;28;20030;-69
2023/05/02 10:38:01;;;;;;;2.65;0.40;;;17.30;81.30;;;;;;4960391;28;20042;-70
2023/05/02 10:40:27;;;;;;;2.92;0.50;;;17.60;80.90;;;;;;4956343;28;20042;-68
2023/05/02 10:42:54;;;;;;;3.00;0.75;;;18.00;80.40;;;;;;4953536;28;20035;-69
2023/05/02 10:45:30;;;;;;;3.90;0.63;;;18.50;79.60;;;;;;4953383;28;20136;-68
2023/05/02 10:48:13;;;;;;;5.60;0.70;;;18.80;77.30;;;;;;4953876;28;20509;-68
2023/05/02 10:51:00;;;;;;;4.65;0.65;;;19.20;75.80;;;;;;4931321;28;20039;-70
2023/05/02 10:53:28;;;;;;;3.15;0.70;;;19.50;74.30;;;;;;4947336;28;20041;-69
2023/05/02 10:56:16;;;;;;;3.72;1.10;;;19.60;73.50;;;;;;4956159;28;20567;-70
2023/05/02 10:58:44;;;;;;;3.20;0.88;;;19.50;71.10;;;;;;4957253;28;20049;-70
2023/05/02 11:01:33;;;;;;;4.82;0.88;;;19.30;71.20;;;;;;4957760;28;20049;-70
2023/05/02 11:04:01;;;;;;;3.25;0.95;;;19.40;70.10;;;;;;4956505;28;20026;-69
2023/05/02 11:06:29;;;;;;;2.85;0.65;;;19.80;68.90;;;;;;4959059;28;20060;-69
2023/05/02 11:09:14;;;;;;;2.85;0.75;;;20.10;67.00;;;;;;4953453;28;20045;-69
2023/05/02 11:11:42;;;;;;;3.42;0.63;;;20.60;67.00;;;;;;4949984;28;20055;-69
2023/05/02 11:14:09;;;;;;;5.18;0.82;;;20.90;65.50;;;;;;4948924;28;20054;-69
2023/05/02 11:17:03;;;;;;;2.95;0.80;;;21.20;63.60;;;;;;4953233;28;20042;-67
2023/05/02 11:19:52;;;;;;;5.47;1.15;;;21.50;62.80;;;;;;4952108;28;20033;-69
2023/05/02 11:22:26;;;;;;;7.13;1.25;;;21.70;61.70;;;;;;4953931;28;20397;-68
2023/05/02 11:24:53;;;;;;;5.32;0.93;;;21.90;61.00;;;;;;4958150;28;20049;-67
2023/05/02 11:27:29;;;;;;;4.25;0.70;;;22.20;60.00;;;;;;4958456;28;20030;-69
2023/05/02 11:29:57;;;;;;;7.10;1.00;;;22.10;58.40;;;;;;4948821;28;20053;-68
2023/05/02 11:32:26;;;;;;;4.35;0.75;;;22.20;58.30;;;;;;4946406;28;20065;-67
2023/05/02 11:34:54;;;;;;;4.28;0.82;;;22.70;58.10;;;;;;4954573;28;20230;-67
2023/05/02 11:37:21;;;;;;;4.00;0.80;;;23.10;56.80;;;;;;4953821;28;20057;-67
2023/05/02 11:39:47;;;;;;;3.67;0.80;;;23.30;56.00;;;;;;4951190;28;20042;-69
2023/05/02 11:42:33;;;;;;;3.55;0.80;;;22.80;55.40;;;;;;4948005;28;20060;-69
2023/05/02 11:44:59;;;;;;;8.60;1.27;;;22.00;56.10;;;;;;4960120;28;20405;-69
2023/05/02 11:47:28;;;;;;;5.88;0.90;;;22.20;56.50;;;;;;4960286;28;20409;-70
2023/05/02 11:49:59;;;;;;;4.70;1.08;;;22.70;55.70;;;;;;4956304;28;20042;-67
2023/05/02 11:52:25;;;;;;;7.05;1.23;;;23.40;55.30;;;;;;4946606;28;21383;-67
2023/05/02 11:54:56;;;;;;;7.80;1.63;;;24.00;54.00;;;;;;4955995;28;20030;-66
2023/05/02 11:57:22;;;;;;;6.20;1.25;;;24.00;52.80;;;;;;4954209;28;20042;-67
2023/05/02 11:59:53;;;;;;;2.97;0.75;;;23.40;52.80;;;;;;4935558;28;20390;-67
2023/05/02 12:02:34;;;;;;;5.93;1.02;;;23.00;53.50;;;;;;4947701;28;20042;-66
2023/05/02 12:05:02;;;;;;;8.48;1.08;;;23.30;53.80;;;;;;4951759;28;20047;-66
2023/05/02 12:07:36;;;;;;;4.82;0.98;;;23.90;52.70;;;;;;4974630;28;20038;-67
2023/05/02 12:10:03;;;;;;;4.10;0.73;;;24.30;51.40;;;;;;4956459;28;20058;-66
2023/05/02 12:12:30;;;;;;;6.35;1.10;;;24.60;51.40;;;;;;4950692;28;20057;-68
2023/05/02 12:14:56;;;;;;;3.05;0.80;;;24.90;51.00;;;;;;4950295;28;20046;-68
2023/05/02 12:17:23;;;;;;;3.50;0.80;;;25.30;49.90;;;;;;4951062;28;20037;-67
2023/05/02 12:19:50;;;;;;;4.22;0.85;;;25.50;48.30;;;;;;4951854;28;20041;-66
2023/05/02 12:22:16;;;;;;;2.97;0.73;;;25.60;48.20;;;;;;4949736;28;20064;-67
2023/05/02 12:24:43;;;;;;;2.90;0.82;;;25.80;47.70;;;;;;4956582;28;20022;-68
2023/05/02 12:27:11;;;;;;;5.70;1.05;;;26.00;47.30;;;;;;4956063;28;20392;-68
2023/05/02 12:29:42;;;;;;;4.22;1.15;;;26.20;46.80;;;;;;4971691;28;20531;-69
2023/05/02 12:32:09;;;;;;;4.77;1.10;;;26.40;46.20;;;;;;4956063;28;20050;-68
2023/05/02 12:34:36;;;;;;;3.67;1.23;;;26.50;45.70;;;;;;4955698;28;20316;-69
2023/05/02 12:37:03;;;;;;;4.40;1.40;;;26.60;45.50;;;;;;4957156;28;20038;-69
2023/05/02 12:39:43;;;;;;;4.80;0.98;;;26.90;45.20;;;;;;4954564;28;20042;-68
2023/05/02 12:42:14;;;;;;;5.35;1.23;;;27.20;45.20;;;;;;4945752;28;20081;-68
2023/05/02 12:44:43;;;;;;;9.97;1.33;;;27.40;44.20;;;;;;4954305;28;20062;-69
2023/05/02 12:47:14;;;;;;;4.63;1.00;;;27.50;44.40;;;;;;4953952;28;20658;-69
2023/05/02 12:49:55;;;;;;;7.63;1.10;;;27.70;44.20;;;;;;4953016;28;20815;-69
2023/05/02 12:52:49;;;;;;;4.30;1.23;;;28.00;43.70;;;;;;4955606;28;20304;-68
2023/05/02 12:55:19;;;;;;;6.90;1.02;;;28.40;42.80;;;;;;4960690;28;20297;-69